createdAt,value
2018-06-14T00:00:54.316Z,16.98
2018-06-14T00:03:23.552Z,16.96
2018-06-14T00:05:52.793Z,16.94
2018-06-14T00:08:22.024Z,16.86
2018-06-14T00:10:51.225Z,16.84
2018-06-14T00:13:20.723Z,16.82
2018-06-14T00:15:49.980Z,16.84
2018-06-14T00:18:19.167Z,16.79
2018-06-14T00:20:48.419Z,16.76
2018-06-14T00:23:17.634Z,16.87
2018-06-14T00:25:47.029Z,16.83
2018-06-14T00:28:16.236Z,16.61
2018-06-14T00:30:45.417Z,16.62
2018-06-14T00:33:14.607Z,16.64
2018-06-14T00:35:43.881Z,16.62
2018-06-14T00:38:13.058Z,16.61
2018-06-14T00:40:42.193Z,16.59
2018-06-14T00:43:11.505Z,16.58
2018-06-14T00:45:41.007Z,16.41
2018-06-14T00:48:10.133Z,16.13
2018-06-14T00:55:35.559Z,16.43
2018-06-14T00:58:04.805Z,16.41
2018-06-14T01:00:33.885Z,16.39
2018-06-14T01:03:03.143Z,16.40
2018-06-14T01:05:32.247Z,16.42
2018-06-14T01:08:02.690Z,16.45
2018-06-14T01:10:31.836Z,16.47
2018-06-14T01:13:01.022Z,16.43
2018-06-14T01:15:30.309Z,16.45
2018-06-14T01:17:59.970Z,16.55
2018-06-14T01:20:29.186Z,16.50
2018-06-14T01:22:58.883Z,16.50
2018-06-14T01:25:28.062Z,16.48
2018-06-14T01:27:57.359Z,16.46
2018-06-14T01:30:26.597Z,16.50
2018-06-14T01:32:55.717Z,16.40
2018-06-14T01:35:24.885Z,16.20
2018-06-14T01:38:05.177Z,16.27
2018-06-14T01:40:34.342Z,16.28
2018-06-14T01:43:03.431Z,16.30
2018-06-14T01:45:32.605Z,16.25
2018-06-14T01:48:01.696Z,16.25
2018-06-14T01:50:30.799Z,16.28
2018-06-14T01:52:59.955Z,16.35
2018-06-14T01:55:32.061Z,16.38
2018-06-14T01:58:01.713Z,16.36
2018-06-14T02:00:30.785Z,16.27
2018-06-14T02:02:59.891Z,16.26
2018-06-14T02:05:29.357Z,16.23
2018-06-14T02:07:58.884Z,16.20
2018-06-14T02:10:28.773Z,16.25
2018-06-14T02:12:58.291Z,16.28
2018-06-14T02:15:28.613Z,16.22
2018-06-14T02:17:58.454Z,16.09
2018-06-14T02:20:27.785Z,16.07
2018-06-14T02:22:57.035Z,16.12
2018-06-14T02:25:26.104Z,16.24
2018-06-14T02:27:55.212Z,16.25
2018-06-14T02:30:25.328Z,16.28
2018-06-14T02:32:54.628Z,16.28
2018-06-14T02:35:23.831Z,16.28
2018-06-14T02:37:53.044Z,16.21
2018-06-14T02:40:22.249Z,16.16
2018-06-14T02:42:51.386Z,16.22
2018-06-14T02:45:20.505Z,16.27
2018-06-14T02:47:49.682Z,16.29
2018-06-14T02:50:18.857Z,16.12
2018-06-14T02:52:48.000Z,16.21
2018-06-14T02:55:17.985Z,16.26
2018-06-14T02:57:47.107Z,16.27
2018-06-14T03:00:16.225Z,16.29
2018-06-14T03:02:45.452Z,16.32
2018-06-14T03:05:14.598Z,16.28
2018-06-14T03:07:43.665Z,16.28
2018-06-14T03:10:12.823Z,16.38
2018-06-14T03:12:41.919Z,15.66
2018-06-14T03:15:11.158Z,16.24
2018-06-14T03:17:40.275Z,16.25
2018-06-14T03:20:09.394Z,16.19
2018-06-14T03:22:38.639Z,16.06
2018-06-14T03:25:07.792Z,16.06
2018-06-14T03:27:36.940Z,16.13
2018-06-14T03:30:06.103Z,16.14
2018-06-14T03:32:35.344Z,16.08
2018-06-14T03:35:04.625Z,15.97
2018-06-14T03:37:33.768Z,16.00
2018-06-14T03:40:02.915Z,16.07
2018-06-14T03:42:32.130Z,16.22
2018-06-14T03:45:01.290Z,16.01
2018-06-14T03:47:30.404Z,16.14
2018-06-14T03:49:59.583Z,16.15
2018-06-14T03:52:28.784Z,16.16
2018-06-14T03:54:57.895Z,16.20
2018-06-14T03:57:27.059Z,16.23
2018-06-14T03:59:56.245Z,16.24
2018-06-14T04:02:25.388Z,16.27
2018-06-14T04:04:54.511Z,16.27
2018-06-14T04:07:23.602Z,16.23
2018-06-14T04:09:52.725Z,16.25
2018-06-14T04:12:21.901Z,16.31
2018-06-14T04:14:51.047Z,16.29
2018-06-14T04:17:20.182Z,16.30
2018-06-14T04:19:49.383Z,15.19
2018-06-14T04:22:18.470Z,16.29
2018-06-14T04:24:47.657Z,16.28
2018-06-14T04:27:17.387Z,16.29
2018-06-14T04:29:58.245Z,16.33
2018-06-14T04:32:27.415Z,16.35
2018-06-14T04:34:56.650Z,16.41
2018-06-14T04:37:25.787Z,16.44
2018-06-14T04:39:54.968Z,16.40
2018-06-14T04:42:24.416Z,16.37
2018-06-14T04:44:54.397Z,16.35
2018-06-14T04:47:25.477Z,16.33
2018-06-14T04:49:55.238Z,16.27
2018-06-14T04:52:24.378Z,16.30
2018-06-14T04:54:53.454Z,16.35
2018-06-14T04:57:22.733Z,16.45
2018-06-14T04:59:51.840Z,16.48
2018-06-14T05:02:21.710Z,16.46
2018-06-14T05:04:50.838Z,16.47
2018-06-14T05:07:20.314Z,16.47
2018-06-14T05:09:49.556Z,16.52
2018-06-14T05:12:18.618Z,16.70
2018-06-14T05:14:47.667Z,16.82
2018-06-14T05:17:16.809Z,16.74
2018-06-14T05:19:46.053Z,16.77
2018-06-14T05:22:15.385Z,16.82
2018-06-14T05:24:44.671Z,16.81
2018-06-14T05:27:13.935Z,16.82
2018-06-14T05:29:43.047Z,16.81
2018-06-14T05:32:12.737Z,16.87
2018-06-14T05:34:42.254Z,16.83
2018-06-14T05:37:11.759Z,16.81
2018-06-14T05:39:40.914Z,16.82
2018-06-14T05:42:10.093Z,16.92
2018-06-14T05:44:39.580Z,16.99
2018-06-14T05:47:08.693Z,17.06
2018-06-14T05:49:37.837Z,17.06
2018-06-14T05:52:06.982Z,17.10
2018-06-14T05:54:36.131Z,17.19
2018-06-14T05:57:05.722Z,17.25
2018-06-14T05:59:35.014Z,17.22
2018-06-14T06:02:04.266Z,17.23
2018-06-14T06:04:33.435Z,17.27
2018-06-14T06:07:02.662Z,17.23
2018-06-14T06:09:31.868Z,17.28
2018-06-14T06:12:01.011Z,17.39
2018-06-14T06:14:30.154Z,17.41
2018-06-14T06:16:59.470Z,17.39
2018-06-14T06:19:28.921Z,17.47
2018-06-14T06:21:58.291Z,17.55
2018-06-14T06:24:27.446Z,17.56
2018-06-14T06:26:56.615Z,17.62
2018-06-14T06:29:25.882Z,17.69
2018-06-14T06:31:56.201Z,17.63
2018-06-14T06:34:25.509Z,17.78
2018-06-14T06:36:54.738Z,17.85
2018-06-14T06:39:24.000Z,17.83
2018-06-14T06:41:53.274Z,17.84
2018-06-14T06:47:09.352Z,17.97
2018-06-14T06:49:38.660Z,18.06
2018-06-14T06:52:07.756Z,18.06
2018-06-14T06:54:37.004Z,18.04
2018-06-14T06:57:06.269Z,18.16
2018-06-14T06:59:35.439Z,18.23
2018-06-14T07:02:04.622Z,18.35
2018-06-14T07:04:35.301Z,18.31
2018-06-14T07:07:05.134Z,18.25
2018-06-14T07:09:34.251Z,18.20
2018-06-14T07:12:03.520Z,18.25
2018-06-14T07:14:32.681Z,18.47
2018-06-14T07:17:01.941Z,18.68
2018-06-14T07:19:31.095Z,18.67
2018-06-14T07:22:00.527Z,18.73
2018-06-14T07:24:29.812Z,18.74
2018-06-14T07:26:59.685Z,18.80
2018-06-14T07:29:29.497Z,18.62
2018-06-14T07:31:58.712Z,18.82
2018-06-14T07:34:28.116Z,18.95
2018-06-14T07:36:57.404Z,19.01
2018-06-14T07:39:26.877Z,19.11
2018-06-14T07:41:56.372Z,18.79
2018-06-14T07:44:25.894Z,19.01
2018-06-14T07:46:55.050Z,19.03
2018-06-14T07:49:24.403Z,19.17
2018-06-14T07:51:53.685Z,19.33
2018-06-14T07:54:23.485Z,19.38
2018-06-14T07:56:52.980Z,19.30
2018-06-14T07:59:22.179Z,19.34
2018-06-14T08:01:51.301Z,19.43
2018-06-14T08:04:20.573Z,19.42
2018-06-14T08:06:50.079Z,19.30
2018-06-14T08:09:19.340Z,19.49
2018-06-14T08:11:48.466Z,19.50
2018-06-14T08:14:17.805Z,19.50
2018-06-14T08:16:47.011Z,19.36
2018-06-14T08:19:16.112Z,19.28
2018-06-14T08:21:45.349Z,19.39
2018-06-14T08:24:14.580Z,19.44
2018-06-14T08:26:44.325Z,19.47
2018-06-14T08:29:13.489Z,19.67
2018-06-14T08:31:42.678Z,19.68
2018-06-14T08:34:11.986Z,19.57
2018-06-14T08:36:41.178Z,19.51
2018-06-14T08:39:10.817Z,19.44
2018-06-14T08:41:39.994Z,19.49
2018-06-14T08:44:09.195Z,19.59
2018-06-14T08:46:38.492Z,19.73
2018-06-14T08:49:07.712Z,19.97
2018-06-14T08:51:36.989Z,19.95
2018-06-14T08:54:06.204Z,20.00
2018-06-14T08:56:35.699Z,19.83
2018-06-14T08:59:04.833Z,19.82
2018-06-14T09:01:34.696Z,20.07
2018-06-14T09:04:03.925Z,20.20
2018-06-14T09:06:33.454Z,20.18
2018-06-14T09:09:03.035Z,20.21
2018-06-14T09:11:32.410Z,20.34
2018-06-14T09:14:01.754Z,20.55
2018-06-14T09:16:31.451Z,20.60
2018-06-14T09:19:01.880Z,20.63
2018-06-14T09:21:32.148Z,20.45
2018-06-14T09:24:01.600Z,20.51
2018-06-14T09:26:33.685Z,20.61
2018-06-14T09:29:08.908Z,20.39
2018-06-14T09:31:38.540Z,20.49
2018-06-14T09:34:09.024Z,20.78
2018-06-14T09:36:39.039Z,20.86
2018-06-14T09:39:10.378Z,20.84
2018-06-14T09:41:40.943Z,20.72
2018-06-14T09:44:10.444Z,20.74
2018-06-14T09:46:39.793Z,20.89
2018-06-14T09:49:16.336Z,20.92
2018-06-14T09:51:47.404Z,21.33
2018-06-14T09:54:18.697Z,21.59
2018-06-14T09:56:49.170Z,21.57
2018-06-14T09:59:19.763Z,21.51
2018-06-14T10:01:49.400Z,21.46
2018-06-14T10:04:18.762Z,21.85
2018-06-14T10:06:48.369Z,22.07
2018-06-14T10:09:18.258Z,22.10
2018-06-14T10:11:48.425Z,21.51
2018-06-14T10:14:17.884Z,20.82
2018-06-14T10:16:47.325Z,20.65
2018-06-14T10:19:16.808Z,20.93
2018-06-14T10:21:46.290Z,20.83
2018-06-14T10:24:15.601Z,20.91
2018-06-14T10:26:45.131Z,20.93
2018-06-14T10:29:14.800Z,20.79
2018-06-14T10:31:44.588Z,20.95
2018-06-14T10:34:14.041Z,21.29
2018-06-14T10:36:43.593Z,21.64
2018-06-14T10:39:13.252Z,21.69
2018-06-14T10:41:43.407Z,21.60
2018-06-14T10:44:13.552Z,21.64
2018-06-14T10:46:43.220Z,21.75
2018-06-14T10:49:12.826Z,21.76
2018-06-14T10:51:42.250Z,22.11
2018-06-14T10:54:12.120Z,22.29
2018-06-14T10:56:41.705Z,22.48
2018-06-14T10:59:10.956Z,22.35
2018-06-14T11:01:41.403Z,22.26
2018-06-14T11:04:11.064Z,22.12
2018-06-14T11:06:44.057Z,22.40
2018-06-14T11:09:13.887Z,22.77
2018-06-14T11:11:44.306Z,22.80
2018-06-14T11:14:14.349Z,23.02
2018-06-14T11:16:49.569Z,22.93
2018-06-14T11:19:21.447Z,23.35
2018-06-14T11:24:38.604Z,23.09
2018-06-14T11:27:16.014Z,23.16
2018-06-14T11:29:48.257Z,22.86
2018-06-14T11:32:22.824Z,23.18
2018-06-14T11:34:55.251Z,23.35
2018-06-14T11:37:28.535Z,23.29
2018-06-14T11:40:04.416Z,23.42
2018-06-14T11:42:34.130Z,23.81
2018-06-14T11:45:04.383Z,23.92
2018-06-14T11:47:35.213Z,23.37
2018-06-14T11:50:04.968Z,22.80
2018-06-14T11:52:34.738Z,22.37
2018-06-14T11:55:04.254Z,22.55
2018-06-14T11:57:33.520Z,22.84
2018-06-14T12:00:02.841Z,22.96
2018-06-14T12:02:32.732Z,22.70
2018-06-14T12:05:02.163Z,22.89
2018-06-14T12:07:31.964Z,23.00
2018-06-14T12:10:01.472Z,23.46
2018-06-14T12:12:30.703Z,23.74
2018-06-14T12:15:00.152Z,23.98
2018-06-14T12:17:29.299Z,23.97
2018-06-14T12:19:58.700Z,24.20
2018-06-14T12:22:27.955Z,24.48
2018-06-14T12:24:57.628Z,24.88
2018-06-14T12:27:27.158Z,25.01
2018-06-14T12:29:56.425Z,24.93
2018-06-14T12:32:25.566Z,25.01
2018-06-14T12:34:54.810Z,24.88
2018-06-14T12:37:24.000Z,24.81
2018-06-14T12:39:53.379Z,24.47
2018-06-14T12:42:22.948Z,24.40
2018-06-14T12:44:52.673Z,24.68
2018-06-14T12:47:23.206Z,24.72
2018-06-14T12:49:53.277Z,24.89
2018-06-14T12:52:22.711Z,24.95
2018-06-14T12:54:51.950Z,24.92
2018-06-14T12:57:21.305Z,24.94
2018-06-14T12:59:51.542Z,24.73
2018-06-14T13:02:21.336Z,24.51
2018-06-14T13:04:50.498Z,24.43
2018-06-14T13:07:19.626Z,24.59
2018-06-14T13:09:51.244Z,24.48
2018-06-14T13:12:21.900Z,23.78
2018-06-14T13:14:51.625Z,24.07
2018-06-14T13:17:21.933Z,24.94
2018-06-14T13:19:51.155Z,25.54
2018-06-14T13:22:20.478Z,25.98
2018-06-14T13:24:50.049Z,26.37
2018-06-14T13:27:19.436Z,26.41
2018-06-14T13:29:48.634Z,26.54
2018-06-14T13:32:19.603Z,26.54
2018-06-14T13:34:50.883Z,26.63
2018-06-14T13:37:20.136Z,26.57
2018-06-14T13:39:50.148Z,26.84
2018-06-14T13:42:19.775Z,27.01
2018-06-14T13:44:49.038Z,26.40
2018-06-14T13:47:18.279Z,26.39
2018-06-14T13:49:47.629Z,26.46
2018-06-14T13:52:16.889Z,26.42
2018-06-14T13:54:46.963Z,25.89
2018-06-14T13:57:16.376Z,25.66
2018-06-14T13:59:45.577Z,26.10
2018-06-14T14:02:15.473Z,26.99
2018-06-14T14:04:44.779Z,27.32
2018-06-14T14:07:19.206Z,27.34
2018-06-14T14:09:48.523Z,26.75
2018-06-14T14:12:17.920Z,26.91
2018-06-14T14:14:47.111Z,26.57
2018-06-14T14:17:20.224Z,26.53
2018-06-14T14:19:49.814Z,26.49
2018-06-14T14:22:31.115Z,26.54
2018-06-14T14:25:01.481Z,26.44
2018-06-14T14:27:30.927Z,26.24
2018-06-14T14:30:02.037Z,26.50
2018-06-14T14:32:31.577Z,26.41
2018-06-14T14:35:01.566Z,26.53
2018-06-14T14:37:33.063Z,26.58
2018-06-14T14:40:09.539Z,26.61
2018-06-14T14:42:41.367Z,26.69
2018-06-14T14:45:14.436Z,26.27
2018-06-14T14:47:47.381Z,26.11
2018-06-14T14:50:18.441Z,26.10
2018-06-14T14:52:49.086Z,26.54
2018-06-14T14:55:19.478Z,26.77
2018-06-14T15:00:27.059Z,26.55
2018-06-14T15:02:59.516Z,26.16
2018-06-14T15:05:36.286Z,26.19
2018-06-14T15:08:08.327Z,25.54
2018-06-14T15:10:40.347Z,25.34
2018-06-14T15:13:10.636Z,25.47
2018-06-14T15:15:41.934Z,25.51
2018-06-14T15:18:18.508Z,25.40
2018-06-14T15:20:47.937Z,25.06
2018-06-14T15:23:18.620Z,24.89
2018-06-14T15:25:49.044Z,24.82
2018-06-14T15:28:18.899Z,25.12
2018-06-14T15:30:49.307Z,25.55
2018-06-14T15:33:19.170Z,25.97
2018-06-14T15:35:48.302Z,26.28
2018-06-14T15:38:17.825Z,27.01
2018-06-14T15:40:48.260Z,27.13
2018-06-14T15:43:18.216Z,27.00
2018-06-14T15:45:48.641Z,26.87
2018-06-14T15:48:18.923Z,27.22
2018-06-14T15:50:50.365Z,27.77
2018-06-14T15:53:19.681Z,27.72
2018-06-14T15:56:02.509Z,27.28
2018-06-14T15:58:32.127Z,26.46
2018-06-14T16:01:03.270Z,26.04
2018-06-14T16:03:32.981Z,25.48
2018-06-14T16:06:02.327Z,25.44
2018-06-14T16:08:32.009Z,25.07
2018-06-14T16:11:02.023Z,25.18
2018-06-14T16:13:31.255Z,25.31
2018-06-14T16:16:00.543Z,25.67
2018-06-14T16:18:29.613Z,25.88
2018-06-14T16:20:59.314Z,25.78
2018-06-14T16:23:28.580Z,25.58
2018-06-14T16:25:57.829Z,25.43
2018-06-14T16:28:28.178Z,25.42
2018-06-14T16:30:58.446Z,25.26
2018-06-14T16:33:27.713Z,25.27
2018-06-14T16:35:57.087Z,25.28
2018-06-14T16:38:26.177Z,25.19
2018-06-14T16:40:55.351Z,25.14
2018-06-14T16:43:24.705Z,24.82
2018-06-14T16:45:54.024Z,24.76
2018-06-14T16:48:24.125Z,24.82
2018-06-14T16:50:53.363Z,24.86
2018-06-14T16:53:22.597Z,24.38
2018-06-14T16:55:51.732Z,24.35
2018-06-14T16:58:21.164Z,24.20
2018-06-14T17:00:50.693Z,24.29
2018-06-14T17:03:19.804Z,24.29
2018-06-14T17:05:49.677Z,24.36
2018-06-14T17:08:18.790Z,24.37
2018-06-14T17:10:47.978Z,24.07
2018-06-14T17:13:17.164Z,24.17
2018-06-14T17:15:46.226Z,24.01
2018-06-14T17:18:15.510Z,23.84
2018-06-14T17:20:44.665Z,23.62
2018-06-14T17:23:13.911Z,23.48
2018-06-14T17:25:43.197Z,23.28
2018-06-14T17:28:12.348Z,23.40
2018-06-14T17:30:41.731Z,23.45
2018-06-14T17:33:10.927Z,23.38
2018-06-14T17:35:40.066Z,23.33
2018-06-14T17:38:09.209Z,23.26
2018-06-14T17:40:38.342Z,23.13
2018-06-14T17:43:07.475Z,22.99
2018-06-14T17:45:36.975Z,23.04
2018-06-14T17:48:06.217Z,23.06
2018-06-14T17:50:35.445Z,23.16
2018-06-14T17:53:04.633Z,23.11
2018-06-14T17:55:33.907Z,23.07
2018-06-14T17:58:04.103Z,23.01
2018-06-14T18:00:33.431Z,22.79
2018-06-14T18:03:02.763Z,22.71
2018-06-14T18:05:31.965Z,22.70
2018-06-14T18:08:01.130Z,22.82
2018-06-14T18:10:30.353Z,22.83
2018-06-14T18:12:59.831Z,22.78
2018-06-14T18:15:30.494Z,22.79
2018-06-14T18:17:59.636Z,22.86
2018-06-14T18:20:28.785Z,22.99
2018-06-14T18:22:57.882Z,23.08
2018-06-14T18:25:27.369Z,22.90
2018-06-14T18:27:56.723Z,22.83
2018-06-14T18:30:25.875Z,22.69
2018-06-14T18:32:55.290Z,22.50
2018-06-14T18:35:33.112Z,22.37
2018-06-14T18:38:03.505Z,22.48
2018-06-14T18:40:33.094Z,22.36
2018-06-14T18:43:02.243Z,22.54
2018-06-14T18:45:33.571Z,22.48
2018-06-14T18:48:02.888Z,22.40
2018-06-14T18:50:32.093Z,22.30
2018-06-14T18:53:01.344Z,22.27
2018-06-14T18:55:30.482Z,22.20
2018-06-14T18:58:00.002Z,22.13
2018-06-14T19:00:29.270Z,22.20
2018-06-14T19:03:00.509Z,22.19
2018-06-14T19:05:31.145Z,22.04
2018-06-14T19:08:02.488Z,22.10
2018-06-14T19:10:33.354Z,22.12
2018-06-14T19:13:02.739Z,22.09
2018-06-14T19:15:32.028Z,22.13
2018-06-14T19:18:01.223Z,22.09
2018-06-14T19:20:30.549Z,22.12
2018-06-14T19:23:01.577Z,22.20
2018-06-14T19:25:30.772Z,22.24
2018-06-14T19:27:59.990Z,22.27
2018-06-14T19:30:29.302Z,22.22
2018-06-14T19:32:58.544Z,22.22
2018-06-14T19:35:28.894Z,22.10
2018-06-14T19:37:58.111Z,21.98
2018-06-14T19:40:27.485Z,21.79
2018-06-14T19:42:56.779Z,21.65
2018-06-14T19:45:26.184Z,21.59
2018-06-14T19:47:55.396Z,21.58
2018-06-14T19:50:24.557Z,21.48
2018-06-14T19:52:53.722Z,21.51
2018-06-14T19:55:22.988Z,21.56
2018-06-14T19:57:52.897Z,21.51
2018-06-14T20:00:22.014Z,21.56
2018-06-14T20:02:51.190Z,21.55
2018-06-14T20:05:20.355Z,21.42
2018-06-14T20:07:49.577Z,21.44
2018-06-14T20:10:18.690Z,21.56
2018-06-14T20:12:47.984Z,21.65
2018-06-14T20:15:17.156Z,21.49
2018-06-14T20:17:46.343Z,21.38
2018-06-14T20:20:16.091Z,21.33
2018-06-14T20:22:46.315Z,21.21
2018-06-14T20:25:16.333Z,21.03
2018-06-14T20:27:46.248Z,20.92
2018-06-14T20:30:15.434Z,20.98
2018-06-14T20:32:44.752Z,21.08
2018-06-14T20:35:14.142Z,21.11
2018-06-14T20:37:43.342Z,21.17
2018-06-14T20:40:12.593Z,21.16
2018-06-14T20:42:41.762Z,20.96
2018-06-14T20:45:10.914Z,20.83
2018-06-14T20:47:40.144Z,20.70
2018-06-14T20:50:10.349Z,20.51
2018-06-14T20:52:39.632Z,20.22
2018-06-14T20:55:08.754Z,20.32
2018-06-14T20:57:37.980Z,20.51
2018-06-14T21:00:07.147Z,20.30
2018-06-14T21:02:36.439Z,20.16
2018-06-14T21:05:06.573Z,19.86
2018-06-14T21:07:35.722Z,19.66
2018-06-14T21:10:04.974Z,19.82
2018-06-14T21:12:34.181Z,19.89
2018-06-14T21:15:03.356Z,19.89
2018-06-14T21:17:32.518Z,19.85
2018-06-14T21:20:01.755Z,19.85
2018-06-14T21:22:30.851Z,19.77
2018-06-14T21:25:00.033Z,19.81
2018-06-14T21:27:29.274Z,19.76
2018-06-14T21:29:58.571Z,19.68
2018-06-14T21:32:27.719Z,19.78
2018-06-14T21:34:57.036Z,19.63
2018-06-14T21:37:26.199Z,19.72
2018-06-14T21:39:55.591Z,19.55
2018-06-14T21:42:24.744Z,19.53
2018-06-14T21:44:53.938Z,19.34
2018-06-14T21:47:23.127Z,19.06
2018-06-14T21:49:52.342Z,19.04
2018-06-14T21:52:21.531Z,19.15
2018-06-14T21:54:50.729Z,19.22
2018-06-14T21:57:19.930Z,19.40
2018-06-14T21:59:49.132Z,19.36
2018-06-14T22:02:18.332Z,19.34
2018-06-14T22:04:47.580Z,19.24
2018-06-14T22:07:16.772Z,19.23
2018-06-14T22:09:45.957Z,19.20
2018-06-14T22:12:15.099Z,19.10
2018-06-14T22:14:44.207Z,19.14
2018-06-14T22:17:13.414Z,18.95
2018-06-14T22:19:42.538Z,18.97
2018-06-14T22:22:11.689Z,19.02
2018-06-14T22:24:40.843Z,19.10
2018-06-14T22:27:10.305Z,19.27
2018-06-14T22:29:39.590Z,19.19
2018-06-14T22:32:08.804Z,19.19
2018-06-14T22:34:49.065Z,19.13
2018-06-14T22:37:19.278Z,19.19
2018-06-14T22:39:48.381Z,19.19
2018-06-14T22:42:17.674Z,19.02
2018-06-14T22:44:46.798Z,19.00
2018-06-14T22:47:15.985Z,19.02
2018-06-14T22:49:45.588Z,18.98
2018-06-14T22:52:53.116Z,18.85
2018-06-14T22:55:23.413Z,18.87
2018-06-14T22:57:52.670Z,18.86
2018-06-14T23:01:32.983Z,18.96
2018-06-14T23:04:02.678Z,18.90
2018-06-14T23:06:32.503Z,19.06
2018-06-14T23:09:12.265Z,18.96
2018-06-14T23:11:41.759Z,18.89
2018-06-14T23:14:10.922Z,19.03
2018-06-14T23:16:40.117Z,19.11
2018-06-14T23:19:09.347Z,19.05
2018-06-14T23:21:38.646Z,19.02
2018-06-14T23:24:07.758Z,19.02
2018-06-14T23:26:36.924Z,19.02
2018-06-14T23:29:06.751Z,19.08
2018-06-14T23:31:36.163Z,18.93
2018-06-14T23:34:05.973Z,18.92
2018-06-14T23:36:35.158Z,18.99
2018-06-14T23:39:05.505Z,18.98
2018-06-14T23:41:34.682Z,18.86
2018-06-14T23:44:04.078Z,18.74
2018-06-14T23:46:33.209Z,18.71
2018-06-14T23:49:02.454Z,18.64
2018-06-14T23:51:31.664Z,18.62
2018-06-14T23:54:01.896Z,18.70
2018-06-14T23:56:31.149Z,18.72
2018-06-14T23:59:00.413Z,18.66
